sensor_id;sensor_type;location;lat;lon;timestamp;temperature;humidity
21712;DHT22;11017;53.552;9.910;2022-11-22T00:00:40;0.10;99.90
21712;DHT22;11017;53.552;9.910;2022-11-22T00:03:08;0.20;99.90
21712;DHT22;11017;53.552;9.910;2022-11-22T00:05:35;0.20;99.90
21712;DHT22;11017;53.552;9.910;2022-11-22T00:08:02;0.40;99.90
21712;DHT22;11017;53.552;9.910;2022-11-22T00:10:29;0.20;99.90
21712;DHT22;11017;53.552;9.910;2022-11-22T00:12:59;0.30;99.90
21712;DHT22;11017;53.552;9.910;2022-11-22T00:15:28;0.40;99.90
21712;DHT22;11017;53.552;9.910;2022-11-22T00:17:57;0.40;99.90
21712;DHT22;11017;53.552;9.910;2022-11-22T00:20:24;0.30;99.90
21712;DHT22;11017;53.552;9.910;2022-11-22T00:22:51;0.30;99.90
21712;DHT22;11017;53.552;9.910;2022-11-22T00:25:18;0.30;99.90
21712;DHT22;11017;53.552;9.910;2022-11-22T00:27:45;0.40;99.90
21712;DHT22;11017;53.552;9.910;2022-11-22T00:30:12;0.30;99.90
21712;DHT22;11017;53.552;9.910;2022-11-22T00:32:39;0.30;99.90
21712;DHT22;11017;53.552;9.910;2022-11-22T00:35:08;0.30;99.90
21712;DHT22;11017;53.552;9.910;2022-11-22T00:37:36;0.40;99.90
21712;DHT22;11017;53.552;9.910;2022-11-22T00:40:04;0.40;99.90
21712;DHT22;11017;53.552;9.910;2022-11-22T00:42:34;0.50;99.90
21712;DHT22;11017;53.552;9.910;2022-11-22T00:45:01;0.40;99.90
21712;DHT22;11017;53.552;9.910;2022-11-22T00:47:28;0.50;99.90
21712;DHT22;11017;53.552;9.910;2022-11-22T00:49:54;0.50;99.90
21712;DHT22;11017;53.552;9.910;2022-11-22T00:52:23;0.50;99.90
21712;DHT22;11017;53.552;9.910;2022-11-22T00:54:50;0.40;99.90
21712;DHT22;11017;53.552;9.910;2022-11-22T00:57:16;0.50;99.90
21712;DHT22;11017;53.552;9.910;2022-11-22T00:59:43;0.40;99.90
21712;DHT22;11017;53.552;9.910;2022-11-22T01:02:10;0.50;99.90
21712;DHT22;11017;53.552;9.910;2022-11-22T01:04:37;0.40;99.90
21712;DHT22;11017;53.552;9.910;2022-11-22T01:07:04;0.30;99.90
21712;DHT22;11017;53.552;9.910;2022-11-22T01:09:32;0.40;99.90
21712;DHT22;11017;53.552;9.910;2022-11-22T01:11:59;0.30;99.90
21712;DHT22;11017;53.552;9.910;2022-11-22T01:14:26;0.30;99.90
21712;DHT22;11017;53.552;9.910;2022-11-22T01:16:56;0.40;99.90
21712;DHT22;11017;53.552;9.910;2022-11-22T01:19:23;0.30;99.90
21712;DHT22;11017;53.552;9.910;2022-11-22T01:21:50;0.30;99.90
21712;DHT22;11017;53.552;9.910;2022-11-22T01:24:16;0.30;99.90
21712;DHT22;11017;53.552;9.910;2022-11-22T01:26:45;0.30;99.90
21712;DHT22;11017;53.552;9.910;2022-11-22T01:29:12;0.30;99.90
21712;DHT22;11017;53.552;9.910;2022-11-22T01:31:39;0.40;99.90
21712;DHT22;11017;53.552;9.910;2022-11-22T01:34:06;0.50;99.90
21712;DHT22;11017;53.552;9.910;2022-11-22T01:36:33;0.60;99.90
21712;DHT22;11017;53.552;9.910;2022-11-22T01:39:00;0.40;99.90
21712;DHT22;11017;53.552;9.910;2022-11-22T01:41:27;0.50;99.90
21712;DHT22;11017;53.552;9.910;2022-11-22T01:43:55;0.50;99.90
21712;DHT22;11017;53.552;9.910;2022-11-22T01:46:30;0.50;99.90
21712;DHT22;11017;53.552;9.910;2022-11-22T01:49:00;0.50;99.90
21712;DHT22;11017;53.552;9.910;2022-11-22T01:51:31;0.70;99.90
21712;DHT22;11017;53.552;9.910;2022-11-22T01:54:03;0.50;99.90
21712;DHT22;11017;53.552;9.910;2022-11-22T01:56:32;0.50;99.90
21712;DHT22;11017;53.552;9.910;2022-11-22T01:59:03;0.50;99.90
21712;DHT22;11017;53.552;9.910;2022-11-22T02:01:32;0.50;99.90
21712;DHT22;11017;53.552;9.910;2022-11-22T02:04:02;0.50;99.90
21712;DHT22;11017;53.552;9.910;2022-11-22T02:06:36;0.50;99.90
21712;DHT22;11017;53.552;9.910;2022-11-22T02:09:08;0.50;99.90
21712;DHT22;11017;53.552;9.910;2022-11-22T02:11:42;0.50;99.90
21712;DHT22;11017;53.552;9.910;2022-11-22T02:14:11;0.40;99.90
21712;DHT22;11017;53.552;9.910;2022-11-22T02:16:40;0.50;99.90
21712;DHT22;11017;53.552;9.910;2022-11-22T02:19:13;0.60;99.90
21712;DHT22;11017;53.552;9.910;2022-11-22T02:21:41;0.60;99.90
21712;DHT22;11017;53.552;9.910;2022-11-22T02:24:12;0.60;99.90
21712;DHT22;11017;53.552;9.910;2022-11-22T02:26:46;0.50;99.90
21712;DHT22;11017;53.552;9.910;2022-11-22T02:29:13;0.40;99.90
21712;DHT22;11017;53.552;9.910;2022-11-22T02:31:42;0.40;99.90
21712;DHT22;11017;53.552;9.910;2022-11-22T02:34:10;0.40;99.90
21712;DHT22;11017;53.552;9.910;2022-11-22T02:36:41;0.50;99.90
21712;DHT22;11017;53.552;9.910;2022-11-22T02:39:10;0.50;99.90
21712;DHT22;11017;53.552;9.910;2022-11-22T02:41:38;0.50;99.90
21712;DHT22;11017;53.552;9.910;2022-11-22T02:44:08;0.50;99.90
21712;DHT22;11017;53.552;9.910;2022-11-22T02:46:46;0.50;99.90
21712;DHT22;11017;53.552;9.910;2022-11-22T02:49:15;0.50;99.90
21712;DHT22;11017;53.552;9.910;2022-11-22T02:51:42;0.40;99.90
21712;DHT22;11017;53.552;9.910;2022-11-22T02:54:09;0.50;99.90
21712;DHT22;11017;53.552;9.910;2022-11-22T02:56:36;0.60;99.90
21712;DHT22;11017;53.552;9.910;2022-11-22T02:59:03;0.60;99.90
21712;DHT22;11017;53.552;9.910;2022-11-22T03:01:32;0.60;99.90
21712;DHT22;11017;53.552;9.910;2022-11-22T03:03:59;0.40;99.90
21712;DHT22;11017;53.552;9.910;2022-11-22T03:06:26;0.50;99.90
21712;DHT22;11017;53.552;9.910;2022-11-22T03:08:53;0.50;99.90
21712;DHT22;11017;53.552;9.910;2022-11-22T03:11:20;0.50;99.90
21712;DHT22;11017;53.552;9.910;2022-11-22T03:13:47;0.50;99.90
21712;DHT22;11017;53.552;9.910;2022-11-22T03:16:14;0.50;99.90
21712;DHT22;11017;53.552;9.910;2022-11-22T03:18:42;0.60;99.90
21712;DHT22;11017;53.552;9.910;2022-11-22T03:21:09;0.50;99.90
21712;DHT22;11017;53.552;9.910;2022-11-22T03:23:36;0.50;99.90
21712;DHT22;11017;53.552;9.910;2022-11-22T03:26:07;0.50;99.90
21712;DHT22;11017;53.552;9.910;2022-11-22T03:28:34;0.50;99.90
21712;DHT22;11017;53.552;9.910;2022-11-22T03:31:04;0.60;99.90
21712;DHT22;11017;53.552;9.910;2022-11-22T03:33:31;0.60;99.90
21712;DHT22;11017;53.552;9.910;2022-11-22T03:36:00;0.50;99.90
21712;DHT22;11017;53.552;9.910;2022-11-22T03:38:27;0.50;99.90
21712;DHT22;11017;53.552;9.910;2022-11-22T03:40:53;0.50;99.90
21712;DHT22;11017;53.552;9.910;2022-11-22T03:43:20;0.60;99.90
21712;DHT22;11017;53.552;9.910;2022-11-22T03:45:48;0.60;99.90
21712;DHT22;11017;53.552;9.910;2022-11-22T03:48:15;0.60;99.90
21712;DHT22;11017;53.552;9.910;2022-11-22T03:50:44;0.50;99.90
21712;DHT22;11017;53.552;9.910;2022-11-22T03:53:12;0.50;99.90
21712;DHT22;11017;53.552;9.910;2022-11-22T03:55:39;0.60;99.90
21712;DHT22;11017;53.552;9.910;2022-11-22T03:58:06;0.60;99.90
21712;DHT22;11017;53.552;9.910;2022-11-22T04:00:34;0.60;99.90
21712;DHT22;11017;53.552;9.910;2022-11-22T04:03:01;0.60;99.90
21712;DHT22;11017;53.552;9.910;2022-11-22T04:05:28;0.40;99.90
21712;DHT22;11017;53.552;9.910;2022-11-22T04:07:55;0.40;99.90
21712;DHT22;11017;53.552;9.910;2022-11-22T04:10:24;0.50;99.90
21712;DHT22;11017;53.552;9.910;2022-11-22T04:12:55;0.50;99.90
21712;DHT22;11017;53.552;9.910;2022-11-22T04:15:21;0.50;99.90
21712;DHT22;11017;53.552;9.910;2022-11-22T04:17:47;0.50;99.90
21712;DHT22;11017;53.552;9.910;2022-11-22T04:20:16;0.40;99.90
21712;DHT22;11017;53.552;9.910;2022-11-22T04:23:03;0.40;99.90
21712;DHT22;11017;53.552;9.910;2022-11-22T04:25:35;0.40;99.90
21712;DHT22;11017;53.552;9.910;2022-11-22T04:28:02;0.50;99.90
21712;DHT22;11017;53.552;9.910;2022-11-22T04:30:29;0.50;99.90
21712;DHT22;11017;53.552;9.910;2022-11-22T04:33:10;0.50;99.90
21712;DHT22;11017;53.552;9.910;2022-11-22T04:35:37;0.60;99.90
21712;DHT22;11017;53.552;9.910;2022-11-22T04:38:05;0.60;99.90
21712;DHT22;11017;53.552;9.910;2022-11-22T04:40:34;0.50;99.90
21712;DHT22;11017;53.552;9.910;2022-11-22T04:43:01;0.60;99.90
21712;DHT22;11017;53.552;9.910;2022-11-22T04:45:46;0.70;99.90
21712;DHT22;11017;53.552;9.910;2022-11-22T04:48:13;0.70;99.90
21712;DHT22;11017;53.552;9.910;2022-11-22T04:50:41;0.80;99.90
21712;DHT22;11017;53.552;9.910;2022-11-22T04:53:26;0.70;99.90
21712;DHT22;11017;53.552;9.910;2022-11-22T04:55:55;0.60;99.90
21712;DHT22;11017;53.552;9.910;2022-11-22T04:58:22;0.70;99.90
21712;DHT22;11017;53.552;9.910;2022-11-22T05:00:50;0.80;99.90
21712;DHT22;11017;53.552;9.910;2022-11-22T05:03:17;0.80;99.90
21712;DHT22;11017;53.552;9.910;2022-11-22T05:05:44;0.70;99.90
21712;DHT22;11017;53.552;9.910;2022-11-22T05:08:12;0.70;99.90
21712;DHT22;11017;53.552;9.910;2022-11-22T05:10:39;0.90;99.90
21712;DHT22;11017;53.552;9.910;2022-11-22T05:13:28;0.90;99.90
21712;DHT22;11017;53.552;9.910;2022-11-22T05:16:00;0.90;99.90
21712;DHT22;11017;53.552;9.910;2022-11-22T05:18:27;0.80;99.90
21712;DHT22;11017;53.552;9.910;2022-11-22T05:20:55;0.90;99.90
21712;DHT22;11017;53.552;9.910;2022-11-22T05:23:23;0.90;99.90
21712;DHT22;11017;53.552;9.910;2022-11-22T05:26:09;0.90;99.90
21712;DHT22;11017;53.552;9.910;2022-11-22T05:28:38;0.90;99.90
21712;DHT22;11017;53.552;9.910;2022-11-22T05:31:06;0.90;99.90
21712;DHT22;11017;53.552;9.910;2022-11-22T05:33:35;0.90;99.90
21712;DHT22;11017;53.552;9.910;2022-11-22T05:36:02;0.90;99.90
21712;DHT22;11017;53.552;9.910;2022-11-22T05:38:29;0.90;99.90
21712;DHT22;11017;53.552;9.910;2022-11-22T05:40:56;1.00;99.90
21712;DHT22;11017;53.552;9.910;2022-11-22T05:43:23;1.10;99.90
21712;DHT22;11017;53.552;9.910;2022-11-22T05:45:51;1.00;99.90
21712;DHT22;11017;53.552;9.910;2022-11-22T05:48:18;0.90;99.90
21712;DHT22;11017;53.552;9.910;2022-11-22T05:50:45;0.90;99.90
21712;DHT22;11017;53.552;9.910;2022-11-22T05:53:12;0.80;99.90
21712;DHT22;11017;53.552;9.910;2022-11-22T05:55:39;0.90;99.90
21712;DHT22;11017;53.552;9.910;2022-11-22T05:58:06;0.90;99.90
21712;DHT22;11017;53.552;9.910;2022-11-22T06:00:33;1.00;99.90
21712;DHT22;11017;53.552;9.910;2022-11-22T06:03:02;1.10;99.90
21712;DHT22;11017;53.552;9.910;2022-11-22T06:05:29;1.10;99.90
21712;DHT22;11017;53.552;9.910;2022-11-22T06:07:57;1.20;99.90
21712;DHT22;11017;53.552;9.910;2022-11-22T06:10:24;1.20;99.90
21712;DHT22;11017;53.552;9.910;2022-11-22T06:12:51;1.10;99.90
21712;DHT22;11017;53.552;9.910;2022-11-22T06:15:18;1.20;99.90
21712;DHT22;11017;53.552;9.910;2022-11-22T06:17:46;1.20;99.90
21712;DHT22;11017;53.552;9.910;2022-11-22T06:20:14;1.30;99.90
21712;DHT22;11017;53.552;9.910;2022-11-22T06:22:41;1.20;99.90
21712;DHT22;11017;53.552;9.910;2022-11-22T06:25:09;1.20;99.90
21712;DHT22;11017;53.552;9.910;2022-11-22T06:27:36;1.20;99.90
21712;DHT22;11017;53.552;9.910;2022-11-22T06:30:03;1.20;99.90
21712;DHT22;11017;53.552;9.910;2022-11-22T06:32:32;1.20;99.90
21712;DHT22;11017;53.552;9.910;2022-11-22T06:34:59;1.20;99.90
21712;DHT22;11017;53.552;9.910;2022-11-22T06:37:28;1.30;99.90
21712;DHT22;11017;53.552;9.910;2022-11-22T06:39:57;1.20;99.90
21712;DHT22;11017;53.552;9.910;2022-11-22T06:42:24;1.20;99.90
21712;DHT22;11017;53.552;9.910;2022-11-22T06:44:51;1.20;99.90
21712;DHT22;11017;53.552;9.910;2022-11-22T06:47:18;1.30;99.90
21712;DHT22;11017;53.552;9.910;2022-11-22T06:49:45;1.20;99.90
21712;DHT22;11017;53.552;9.910;2022-11-22T06:52:12;1.10;99.90
21712;DHT22;11017;53.552;9.910;2022-11-22T06:54:41;1.20;99.90
21712;DHT22;11017;53.552;9.910;2022-11-22T06:57:11;1.20;99.90
21712;DHT22;11017;53.552;9.910;2022-11-22T06:59:38;1.10;99.90
21712;DHT22;11017;53.552;9.910;2022-11-22T07:02:05;1.10;99.90
21712;DHT22;11017;53.552;9.910;2022-11-22T07:04:32;1.20;99.90
21712;DHT22;11017;53.552;9.910;2022-11-22T07:06:59;1.20;99.90
21712;DHT22;11017;53.552;9.910;2022-11-22T07:09:26;1.20;99.90
21712;DHT22;11017;53.552;9.910;2022-11-22T07:11:54;1.20;99.90
21712;DHT22;11017;53.552;9.910;2022-11-22T07:14:22;1.30;99.90
21712;DHT22;11017;53.552;9.910;2022-11-22T07:16:49;1.30;99.90
21712;DHT22;11017;53.552;9.910;2022-11-22T07:19:16;1.20;99.90
21712;DHT22;11017;53.552;9.910;2022-11-22T07:21:43;1.20;99.90
21712;DHT22;11017;53.552;9.910;2022-11-22T07:24:10;1.20;99.90
21712;DHT22;11017;53.552;9.910;2022-11-22T07:26:37;1.30;99.90
21712;DHT22;11017;53.552;9.910;2022-11-22T07:29:06;1.30;99.90
21712;DHT22;11017;53.552;9.910;2022-11-22T07:31:33;1.20;99.90
21712;DHT22;11017;53.552;9.910;2022-11-22T07:34:00;1.20;99.90
21712;DHT22;11017;53.552;9.910;2022-11-22T07:36:27;1.30;99.90
21712;DHT22;11017;53.552;9.910;2022-11-22T07:38:56;1.30;99.90
21712;DHT22;11017;53.552;9.910;2022-11-22T07:41:23;1.40;99.90
21712;DHT22;11017;53.552;9.910;2022-11-22T07:43:50;1.40;99.90
21712;DHT22;11017;53.552;9.910;2022-11-22T07:46:22;1.60;99.90
21712;DHT22;11017;53.552;9.910;2022-11-22T07:48:51;1.50;99.90
21712;DHT22;11017;53.552;9.910;2022-11-22T07:51:18;1.40;99.90
21712;DHT22;11017;53.552;9.910;2022-11-22T07:53:45;1.40;99.90
21712;DHT22;11017;53.552;9.910;2022-11-22T07:56:13;1.30;99.90
21712;DHT22;11017;53.552;9.910;2022-11-22T07:58:42;1.40;99.90
21712;DHT22;11017;53.552;9.910;2022-11-22T08:01:10;1.50;99.90
21712;DHT22;11017;53.552;9.910;2022-11-22T08:03:39;1.50;99.90
21712;DHT22;11017;53.552;9.910;2022-11-22T08:06:07;1.40;99.90
21712;DHT22;11017;53.552;9.910;2022-11-22T08:08:35;1.40;99.90
21712;DHT22;11017;53.552;9.910;2022-11-22T08:11:04;1.40;99.90
21712;DHT22;11017;53.552;9.910;2022-11-22T08:13:32;1.40;99.90
21712;DHT22;11017;53.552;9.910;2022-11-22T08:16:01;1.50;99.90
21712;DHT22;11017;53.552;9.910;2022-11-22T08:18:28;1.40;99.90
21712;DHT22;11017;53.552;9.910;2022-11-22T08:21:05;1.50;99.90
21712;DHT22;11017;53.552;9.910;2022-11-22T08:23:33;1.50;99.90
21712;DHT22;11017;53.552;9.910;2022-11-22T08:26:00;1.40;99.90
21712;DHT22;11017;53.552;9.910;2022-11-22T08:28:27;1.50;99.90
21712;DHT22;11017;53.552;9.910;2022-11-22T08:30:59;1.40;99.90
21712;DHT22;11017;53.552;9.910;2022-11-22T08:33:27;1.40;99.90
21712;DHT22;11017;53.552;9.910;2022-11-22T08:35:54;1.50;99.90
21712;DHT22;11017;53.552;9.910;2022-11-22T08:38:22;1.50;99.90
21712;DHT22;11017;53.552;9.910;2022-11-22T08:40:49;1.50;99.90
21712;DHT22;11017;53.552;9.910;2022-11-22T08:43:16;1.40;99.90
21712;DHT22;11017;53.552;9.910;2022-11-22T08:45:43;1.40;99.90
21712;DHT22;11017;53.552;9.910;2022-11-22T08:48:10;1.40;99.90
21712;DHT22;11017;53.552;9.910;2022-11-22T08:50:37;1.40;99.90
21712;DHT22;11017;53.552;9.910;2022-11-22T08:53:04;1.50;99.90
21712;DHT22;11017;53.552;9.910;2022-11-22T08:55:32;1.50;99.90
21712;DHT22;11017;53.552;9.910;2022-11-22T08:57:59;1.60;99.90
21712;DHT22;11017;53.552;9.910;2022-11-22T09:00:26;1.70;99.90
21712;DHT22;11017;53.552;9.910;2022-11-22T09:02:53;1.60;99.90
21712;DHT22;11017;53.552;9.910;2022-11-22T09:05:20;1.60;99.90
21712;DHT22;11017;53.552;9.910;2022-11-22T09:07:47;1.60;99.90
21712;DHT22;11017;53.552;9.910;2022-11-22T09:10:14;1.60;99.90
21712;DHT22;11017;53.552;9.910;2022-11-22T09:12:44;1.60;99.90
21712;DHT22;11017;53.552;9.910;2022-11-22T09:15:12;1.60;99.90
21712;DHT22;11017;53.552;9.910;2022-11-22T09:17:40;1.70;99.90
21712;DHT22;11017;53.552;9.910;2022-11-22T09:20:10;1.60;99.90
21712;DHT22;11017;53.552;9.910;2022-11-22T09:22:38;1.60;99.90
21712;DHT22;11017;53.552;9.910;2022-11-22T09:25:07;1.70;99.90
21712;DHT22;11017;53.552;9.910;2022-11-22T09:27:34;1.80;99.90
21712;DHT22;11017;53.552;9.910;2022-11-22T09:30:03;1.60;99.90
21712;DHT22;11017;53.552;9.910;2022-11-22T09:32:33;1.60;99.90
21712;DHT22;11017;53.552;9.910;2022-11-22T09:35:00;1.70;99.90
21712;DHT22;11017;53.552;9.910;2022-11-22T09:37:27;1.70;99.90
21712;DHT22;11017;53.552;9.910;2022-11-22T09:39:54;1.70;99.90
21712;DHT22;11017;53.552;9.910;2022-11-22T09:42:43;1.70;99.90
21712;DHT22;11017;53.552;9.910;2022-11-22T09:45:34;1.70;99.90
21712;DHT22;11017;53.552;9.910;2022-11-22T09:48:16;1.70;99.90
21712;DHT22;11017;53.552;9.910;2022-11-22T09:50:50;1.80;99.90
21712;DHT22;11017;53.552;9.910;2022-11-22T09:53:24;1.80;99.90
21712;DHT22;11017;53.552;9.910;2022-11-22T09:55:57;1.80;99.90
21712;DHT22;11017;53.552;9.910;2022-11-22T09:58:28;1.90;99.90
21712;DHT22;11017;53.552;9.910;2022-11-22T10:01:02;1.80;99.90
21712;DHT22;11017;53.552;9.910;2022-11-22T10:03:41;1.80;99.90
21712;DHT22;11017;53.552;9.910;2022-11-22T10:06:16;1.80;99.90
21712;DHT22;11017;53.552;9.910;2022-11-22T10:08:54;1.80;99.90
21712;DHT22;11017;53.552;9.910;2022-11-22T10:11:28;1.80;99.90
21712;DHT22;11017;53.552;9.910;2022-11-22T10:14:02;1.90;99.90
21712;DHT22;11017;53.552;9.910;2022-11-22T10:16:35;2.10;99.90
21712;DHT22;11017;53.552;9.910;2022-11-22T10:19:11;2.00;99.90
21712;DHT22;11017;53.552;9.910;2022-11-22T10:21:39;2.00;99.90
21712;DHT22;11017;53.552;9.910;2022-11-22T10:24:11;2.10;99.90
21712;DHT22;11017;53.552;9.910;2022-11-22T10:26:40;2.10;99.90
21712;DHT22;11017;53.552;9.910;2022-11-22T10:29:21;2.10;99.90
21712;DHT22;11017;53.552;9.910;2022-11-22T10:31:58;2.10;99.90
21712;DHT22;11017;53.552;9.910;2022-11-22T10:34:42;2.00;99.90
21712;DHT22;11017;53.552;9.910;2022-11-22T10:37:18;2.10;99.90
21712;DHT22;11017;53.552;9.910;2022-11-22T10:40:04;2.10;99.90
21712;DHT22;11017;53.552;9.910;2022-11-22T10:42:48;2.20;99.90
21712;DHT22;11017;53.552;9.910;2022-11-22T10:45:25;2.20;99.90
21712;DHT22;11017;53.552;9.910;2022-11-22T10:48:05;2.30;99.90
21712;DHT22;11017;53.552;9.910;2022-11-22T10:50:44;2.20;99.90
21712;DHT22;11017;53.552;9.910;2022-11-22T10:53:26;2.30;99.90
21712;DHT22;11017;53.552;9.910;2022-11-22T10:55:58;2.40;99.90
21712;DHT22;11017;53.552;9.910;2022-11-22T10:58:34;2.40;99.90
21712;DHT22;11017;53.552;9.910;2022-11-22T11:01:11;2.40;99.90
21712;DHT22;11017;53.552;9.910;2022-11-22T11:03:47;2.60;99.90
21712;DHT22;11017;53.552;9.910;2022-11-22T11:06:20;2.60;99.90
21712;DHT22;11017;53.552;9.910;2022-11-22T11:08:53;2.60;99.90
21712;DHT22;11017;53.552;9.910;2022-11-22T11:11:23;2.60;99.90
21712;DHT22;11017;53.552;9.910;2022-11-22T11:13:53;2.70;99.90
21712;DHT22;11017;53.552;9.910;2022-11-22T11:16:23;2.70;99.90
21712;DHT22;11017;53.552;9.910;2022-11-22T11:18:55;2.70;99.90
21712;DHT22;11017;53.552;9.910;2022-11-22T11:21:24;2.70;99.90
21712;DHT22;11017;53.552;9.910;2022-11-22T11:23:52;2.70;99.90
21712;DHT22;11017;53.552;9.910;2022-11-22T11:26:25;2.70;99.90
21712;DHT22;11017;53.552;9.910;2022-11-22T11:32:05;2.90;99.90
21712;DHT22;11017;53.552;9.910;2022-11-22T11:34:35;2.80;99.90
21712;DHT22;11017;53.552;9.910;2022-11-22T11:37:04;2.90;99.90
21712;DHT22;11017;53.552;9.910;2022-11-22T11:39:32;2.90;99.90
21712;DHT22;11017;53.552;9.910;2022-11-22T11:42:00;2.80;99.90
21712;DHT22;11017;53.552;9.910;2022-11-22T11:44:29;2.90;99.90
21712;DHT22;11017;53.552;9.910;2022-11-22T11:46:59;2.90;99.90
21712;DHT22;11017;53.552;9.910;2022-11-22T11:49:27;2.80;99.90
21712;DHT22;11017;53.552;9.910;2022-11-22T11:51:58;2.80;99.90
21712;DHT22;11017;53.552;9.910;2022-11-22T11:54:33;3.00;99.90
21712;DHT22;11017;53.552;9.910;2022-11-22T11:57:09;3.00;99.90
21712;DHT22;11017;53.552;9.910;2022-11-22T11:59:42;3.00;99.90
21712;DHT22;11017;53.552;9.910;2022-11-22T12:02:13;3.00;99.90
21712;DHT22;11017;53.552;9.910;2022-11-22T12:04:47;3.00;99.90
21712;DHT22;11017;53.552;9.910;2022-11-22T12:07:19;3.10;99.90
21712;DHT22;11017;53.552;9.910;2022-11-22T12:09:51;3.10;99.90
21712;DHT22;11017;53.552;9.910;2022-11-22T12:12:37;2.90;99.90
21712;DHT22;11017;53.552;9.910;2022-11-22T12:15:13;3.10;99.90
21712;DHT22;11017;53.552;9.910;2022-11-22T12:17:48;3.00;99.90
21712;DHT22;11017;53.552;9.910;2022-11-22T12:20:19;3.00;99.90
21712;DHT22;11017;53.552;9.910;2022-11-22T12:22:59;3.20;99.90
21712;DHT22;11017;53.552;9.910;2022-11-22T12:25:34;3.20;99.90
21712;DHT22;11017;53.552;9.910;2022-11-22T12:28:09;3.30;99.90
21712;DHT22;11017;53.552;9.910;2022-11-22T12:30:40;3.30;99.90
21712;DHT22;11017;53.552;9.910;2022-11-22T12:33:17;3.10;99.90
21712;DHT22;11017;53.552;9.910;2022-11-22T12:35:46;3.20;99.90
21712;DHT22;11017;53.552;9.910;2022-11-22T12:38:18;3.20;99.90
21712;DHT22;11017;53.552;9.910;2022-11-22T12:40:48;3.10;99.90
21712;DHT22;11017;53.552;9.910;2022-11-22T12:43:20;3.20;99.90
21712;DHT22;11017;53.552;9.910;2022-11-22T12:45:51;3.20;99.90
21712;DHT22;11017;53.552;9.910;2022-11-22T12:48:27;3.30;99.90
21712;DHT22;11017;53.552;9.910;2022-11-22T12:51:00;3.10;99.90
21712;DHT22;11017;53.552;9.910;2022-11-22T12:53:32;3.10;99.90
21712;DHT22;11017;53.552;9.910;2022-11-22T12:56:07;3.20;99.90
21712;DHT22;11017;53.552;9.910;2022-11-22T12:58:40;3.10;99.90
21712;DHT22;11017;53.552;9.910;2022-11-22T13:01:14;3.20;99.90
21712;DHT22;11017;53.552;9.910;2022-11-22T13:03:47;3.10;99.90
21712;DHT22;11017;53.552;9.910;2022-11-22T13:06:21;3.20;99.90
21712;DHT22;11017;53.552;9.910;2022-11-22T13:08:56;3.30;99.90
21712;DHT22;11017;53.552;9.910;2022-11-22T13:11:26;3.30;99.90
21712;DHT22;11017;53.552;9.910;2022-11-22T13:13:57;3.30;99.90
21712;DHT22;11017;53.552;9.910;2022-11-22T13:16:25;3.30;99.90
21712;DHT22;11017;53.552;9.910;2022-11-22T13:18:56;3.40;99.90
21712;DHT22;11017;53.552;9.910;2022-11-22T13:21:29;3.40;99.90
21712;DHT22;11017;53.552;9.910;2022-11-22T13:24:11;3.30;99.90
21712;DHT22;11017;53.552;9.910;2022-11-22T13:26:45;3.20;99.90
21712;DHT22;11017;53.552;9.910;2022-11-22T13:29:20;3.30;99.90
21712;DHT22;11017;53.552;9.910;2022-11-22T13:32:06;3.40;99.90
21712;DHT22;11017;53.552;9.910;2022-11-22T13:34:42;3.40;99.90
21712;DHT22;11017;53.552;9.910;2022-11-22T13:37:25;3.40;99.90
21712;DHT22;11017;53.552;9.910;2022-11-22T13:39:54;3.40;99.90
21712;DHT22;11017;53.552;9.910;2022-11-22T13:42:24;3.10;99.90
21712;DHT22;11017;53.552;9.910;2022-11-22T13:45:12;3.50;99.90
21712;DHT22;11017;53.552;9.910;2022-11-22T13:47:45;3.40;99.90
21712;DHT22;11017;53.552;9.910;2022-11-22T13:53:26;3.50;99.90
21712;DHT22;11017;53.552;9.910;2022-11-22T13:55:57;3.60;99.90
21712;DHT22;11017;53.552;9.910;2022-11-22T13:58:52;3.50;99.90
21712;DHT22;11017;53.552;9.910;2022-11-22T14:01:55;3.70;99.90
21712;DHT22;11017;53.552;9.910;2022-11-22T14:04:38;3.80;99.90
21712;DHT22;11017;53.552;9.910;2022-11-22T14:07:21;3.80;99.90
21712;DHT22;11017;53.552;9.910;2022-11-22T14:09:56;3.70;99.90
21712;DHT22;11017;53.552;9.910;2022-11-22T14:12:48;3.60;99.90
21712;DHT22;11017;53.552;9.910;2022-11-22T14:15:45;3.60;99.90
21712;DHT22;11017;53.552;9.910;2022-11-22T14:18:27;3.50;99.90
21712;DHT22;11017;53.552;9.910;2022-11-22T14:21:02;3.50;99.90
21712;DHT22;11017;53.552;9.910;2022-11-22T14:23:37;3.50;99.90
21712;DHT22;11017;53.552;9.910;2022-11-22T14:26:22;3.60;99.90
21712;DHT22;11017;53.552;9.910;2022-11-22T14:31:59;3.50;99.90
21712;DHT22;11017;53.552;9.910;2022-11-22T14:34:28;3.40;99.90
21712;DHT22;11017;53.552;9.910;2022-11-22T14:37:40;3.50;99.90
21712;DHT22;11017;53.552;9.910;2022-11-22T14:40:35;3.40;99.90
21712;DHT22;11017;53.552;9.910;2022-11-22T14:43:27;3.50;99.90
21712;DHT22;11017;53.552;9.910;2022-11-22T14:45:59;3.50;99.90
21712;DHT22;11017;53.552;9.910;2022-11-22T14:48:31;3.50;99.90
21712;DHT22;11017;53.552;9.910;2022-11-22T14:51:05;3.50;99.90
21712;DHT22;11017;53.552;9.910;2022-11-22T14:53:36;3.30;99.90
21712;DHT22;11017;53.552;9.910;2022-11-22T14:56:07;3.30;99.90
21712;DHT22;11017;53.552;9.910;2022-11-22T14:58:41;3.30;99.90
21712;DHT22;11017;53.552;9.910;2022-11-22T15:01:38;3.30;99.90
21712;DHT22;11017;53.552;9.910;2022-11-22T15:04:44;3.30;99.90
21712;DHT22;11017;53.552;9.910;2022-11-22T15:07:29;3.30;99.90
21712;DHT22;11017;53.552;9.910;2022-11-22T15:13:15;3.40;99.90
21712;DHT22;11017;53.552;9.910;2022-11-22T15:15:46;3.20;99.90
21712;DHT22;11017;53.552;9.910;2022-11-22T15:18:17;3.10;99.90
21712;DHT22;11017;53.552;9.910;2022-11-22T15:20:46;3.10;99.90
21712;DHT22;11017;53.552;9.910;2022-11-22T15:23:16;3.10;99.90
21712;DHT22;11017;53.552;9.910;2022-11-22T15:25:45;3.10;99.90
21712;DHT22;11017;53.552;9.910;2022-11-22T15:28:15;3.00;99.90
21712;DHT22;11017;53.552;9.910;2022-11-22T15:30:42;3.00;99.90
21712;DHT22;11017;53.552;9.910;2022-11-22T15:33:32;3.00;99.90
21712;DHT22;11017;53.552;9.910;2022-11-22T15:36:10;3.00;99.90
21712;DHT22;11017;53.552;9.910;2022-11-22T15:38:39;3.00;99.90
21712;DHT22;11017;53.552;9.910;2022-11-22T15:41:13;3.00;99.90
21712;DHT22;11017;53.552;9.910;2022-11-22T15:43:40;3.00;99.90
21712;DHT22;11017;53.552;9.910;2022-11-22T15:46:08;3.10;99.90
21712;DHT22;11017;53.552;9.910;2022-11-22T15:48:40;3.10;99.90
21712;DHT22;11017;53.552;9.910;2022-11-22T15:51:25;3.10;99.90
21712;DHT22;11017;53.552;9.910;2022-11-22T15:54:18;3.00;99.90
21712;DHT22;11017;53.552;9.910;2022-11-22T15:56:49;3.10;99.90
21712;DHT22;11017;53.552;9.910;2022-11-22T15:59:23;3.10;99.90
21712;DHT22;11017;53.552;9.910;2022-11-22T16:01:54;3.10;99.90
21712;DHT22;11017;53.552;9.910;2022-11-22T16:04:26;3.00;99.90
21712;DHT22;11017;53.552;9.910;2022-11-22T16:06:55;3.00;99.90
21712;DHT22;11017;53.552;9.910;2022-11-22T16:09:26;3.00;99.90
21712;DHT22;11017;53.552;9.910;2022-11-22T16:11:54;3.00;99.90
21712;DHT22;11017;53.552;9.910;2022-11-22T16:14:47;3.00;99.90
21712;DHT22;11017;53.552;9.910;2022-11-22T16:17:28;2.90;99.90
21712;DHT22;11017;53.552;9.910;2022-11-22T16:20:25;2.90;99.90
21712;DHT22;11017;53.552;9.910;2022-11-22T16:23:14;2.90;99.90